sensor_id;sensor_type;location;lat;lon;timestamp;pressure;altitude;pressure_sealevel;temperature;humidity
46045;BME280;31781;54.094;13.428;2022-07-29T00:05:05;102230.53;;;15.09;56.45
46045;BME280;31781;54.094;13.428;2022-07-29T00:10:08;102230.28;;;15.04;54.32
46045;BME280;31781;54.094;13.428;2022-07-29T00:15:11;102235.72;;;14.97;55.97
46045;BME280;31781;54.094;13.428;2022-07-29T00:20:19;102230.47;;;14.96;56.45
46045;BME280;31781;54.094;13.428;2022-07-29T00:25:22;102222.44;;;14.94;54.85
46045;BME280;31781;54.094;13.428;2022-07-29T00:30:24;102218.41;;;14.90;56.85
46045;BME280;31781;54.094;13.428;2022-07-29T00:35:33;102219.84;;;14.86;57.75
46045;BME280;31781;54.094;13.428;2022-07-29T00:40:35;102224.91;;;14.83;56.63
46045;BME280;31781;54.094;13.428;2022-07-29T00:45:43;102223.59;;;14.79;58.85
46045;BME280;31781;54.094;13.428;2022-07-29T00:50:52;102218.09;;;14.72;59.22
46045;BME280;31781;54.094;13.428;2022-07-29T00:56:11;102224.41;;;14.73;54.91
46045;BME280;31781;54.094;13.428;2022-07-29T01:01:29;102226.25;;;14.66;54.57
46045;BME280;31781;54.094;13.428;2022-07-29T01:06:32;102221.53;;;14.53;55.91
46045;BME280;31781;54.094;13.428;2022-07-29T01:11:36;102226.09;;;14.46;58.03
46045;BME280;31781;54.094;13.428;2022-07-29T01:16:50;102225.88;;;14.41;59.89
46045;BME280;31781;54.094;13.428;2022-07-29T01:21:57;102224.75;;;14.35;56.69
46045;BME280;31781;54.094;13.428;2022-07-29T01:27:16;102230.56;;;14.26;58.15
46045;BME280;31781;54.094;13.428;2022-07-29T01:32:37;102229.44;;;14.20;57.00
46045;BME280;31781;54.094;13.428;2022-07-29T01:37:57;102217.44;;;14.21;56.20
46045;BME280;31781;54.094;13.428;2022-07-29T01:43:06;102216.09;;;14.10;57.69
46045;BME280;31781;54.094;13.428;2022-07-29T01:48:15;102214.13;;;14.04;58.90
46045;BME280;31781;54.094;13.428;2022-07-29T01:53:30;102210.69;;;13.96;59.02
46045;BME280;31781;54.094;13.428;2022-07-29T01:58:40;102214.41;;;13.88;57.33
46045;BME280;31781;54.094;13.428;2022-07-29T02:03:46;102216.87;;;13.83;59.60
46045;BME280;31781;54.094;13.428;2022-07-29T02:08:56;102208.88;;;13.82;60.64
46045;BME280;31781;54.094;13.428;2022-07-29T02:14:01;102207.16;;;13.81;58.21
46045;BME280;31781;54.094;13.428;2022-07-29T02:19:06;102198.50;;;13.77;60.96
46045;BME280;31781;54.094;13.428;2022-07-29T02:24:16;102198.03;;;13.74;60.55
46045;BME280;31781;54.094;13.428;2022-07-29T02:29:22;102193.78;;;13.71;58.13
46045;BME280;31781;54.094;13.428;2022-07-29T02:34:27;102191.66;;;13.67;60.30
46045;BME280;31781;54.094;13.428;2022-07-29T02:39:37;102192.87;;;13.64;60.73
46045;BME280;31781;54.094;13.428;2022-07-29T02:44:41;102201.28;;;13.62;58.31
46045;BME280;31781;54.094;13.428;2022-07-29T02:49:50;102195.53;;;13.57;60.53
46045;BME280;31781;54.094;13.428;2022-07-29T02:55:16;102188.84;;;13.60;56.99
46045;BME280;31781;54.094;13.428;2022-07-29T03:00:21;102187.66;;;13.48;58.54
46045;BME280;31781;54.094;13.428;2022-07-29T03:05:26;102190.69;;;13.38;61.96
46045;BME280;31781;54.094;13.428;2022-07-29T03:10:37;102188.09;;;13.30;62.02
46045;BME280;31781;54.094;13.428;2022-07-29T03:15:42;102178.75;;;13.25;59.43
46045;BME280;31781;54.094;13.428;2022-07-29T03:20:46;102179.31;;;13.20;61.29
46045;BME280;31781;54.094;13.428;2022-07-29T03:31:08;102167.25;;;13.29;59.16
46045;BME280;31781;54.094;13.428;2022-07-29T03:36:10;102170.75;;;13.23;60.50
46045;BME280;31781;54.094;13.428;2022-07-29T03:41:14;102167.19;;;13.23;63.17
46045;BME280;31781;54.094;13.428;2022-07-29T03:46:29;102174.94;;;13.19;63.46
46045;BME280;31781;54.094;13.428;2022-07-29T03:51:33;102171.12;;;13.20;61.11
46045;BME280;31781;54.094;13.428;2022-07-29T03:56:39;102166.13;;;13.24;64.01
46045;BME280;31781;54.094;13.428;2022-07-29T04:01:47;102156.41;;;13.36;63.06
46045;BME280;31781;54.094;13.428;2022-07-29T04:06:51;102160.44;;;13.61;61.65
46045;BME280;31781;54.094;13.428;2022-07-29T04:11:54;102152.91;;;13.63;64.85
46045;BME280;31781;54.094;13.428;2022-07-29T04:17:09;102152.41;;;13.74;64.95
46045;BME280;31781;54.094;13.428;2022-07-29T04:22:12;102154.59;;;13.85;63.11
46045;BME280;31781;54.094;13.428;2022-07-29T04:27:15;102160.59;;;13.95;64.90
46045;BME280;31781;54.094;13.428;2022-07-29T04:32:23;102167.84;;;14.09;65.49
46045;BME280;31781;54.094;13.428;2022-07-29T04:37:26;102158.91;;;14.22;62.84
46045;BME280;31781;54.094;13.428;2022-07-29T04:42:29;102165.06;;;14.31;65.83
46045;BME280;31781;54.094;13.428;2022-07-29T04:47:37;102164.78;;;14.40;66.09
46045;BME280;31781;54.094;13.428;2022-07-29T04:52:40;102162.53;;;14.50;63.28
46045;BME280;31781;54.094;13.428;2022-07-29T04:57:43;102167.62;;;14.60;66.42
46045;BME280;31781;54.094;13.428;2022-07-29T05:08:09;102163.59;;;14.90;62.35
46045;BME280;31781;54.094;13.428;2022-07-29T05:13:12;102165.53;;;14.96;64.57
46045;BME280;31781;54.094;13.428;2022-07-29T05:18:15;102160.72;;;15.11;67.61
46045;BME280;31781;54.094;13.428;2022-07-29T05:23:23;102161.84;;;15.30;67.66
46045;BME280;31781;54.094;13.428;2022-07-29T05:28:26;102161.78;;;15.51;64.90
46045;BME280;31781;54.094;13.428;2022-07-29T05:33:28;102158.84;;;15.73;67.29
46045;BME280;31781;54.094;13.428;2022-07-29T05:38:42;102154.00;;;15.94;67.32
46045;BME280;31781;54.094;13.428;2022-07-29T05:43:45;102158.25;;;16.17;65.32
46045;BME280;31781;54.094;13.428;2022-07-29T05:48:48;102159.91;;;16.37;67.36
46045;BME280;31781;54.094;13.428;2022-07-29T05:53:56;102160.78;;;16.58;66.47
46045;BME280;31781;54.094;13.428;2022-07-29T05:58:59;102160.75;;;16.77;63.77
46045;BME280;31781;54.094;13.428;2022-07-29T06:04:01;102162.16;;;16.93;65.72
46045;BME280;31781;54.094;13.428;2022-07-29T06:09:09;102151.09;;;17.13;65.39
46045;BME280;31781;54.094;13.428;2022-07-29T06:14:14;102151.16;;;17.37;63.48
46045;BME280;31781;54.094;13.428;2022-07-29T06:19:17;102152.34;;;17.61;65.58
46045;BME280;31781;54.094;13.428;2022-07-29T06:24:25;102156.75;;;17.93;64.95
46045;BME280;31781;54.094;13.428;2022-07-29T06:29:28;102153.97;;;18.25;62.34
46045;BME280;31781;54.094;13.428;2022-07-29T06:34:31;102155.22;;;18.54;63.80
46045;BME280;31781;54.094;13.428;2022-07-29T06:39:39;102142.81;;;18.81;63.36
46045;BME280;31781;54.094;13.428;2022-07-29T06:44:42;102150.56;;;19.09;61.01
46045;BME280;31781;54.094;13.428;2022-07-29T06:49:45;102141.31;;;19.33;61.25
46045;BME280;31781;54.094;13.428;2022-07-29T06:54:53;102142.50;;;19.55;61.15
46045;BME280;31781;54.094;13.428;2022-07-29T07:05:15;102140.47;;;20.04;58.57
46045;BME280;31781;54.094;13.428;2022-07-29T07:10:18;102132.81;;;20.17;58.46
46045;BME280;31781;54.094;13.428;2022-07-29T07:15:21;102149.19;;;20.30;59.50
46045;BME280;31781;54.094;13.428;2022-07-29T07:20:45;102135.50;;;20.47;59.01
46045;BME280;31781;54.094;13.428;2022-07-29T07:26:04;102127.28;;;20.75;57.00
46045;BME280;31781;54.094;13.428;2022-07-29T07:31:07;102122.22;;;20.84;57.58
46045;BME280;31781;54.094;13.428;2022-07-29T07:36:10;102120.59;;;21.00;58.04
46045;BME280;31781;54.094;13.428;2022-07-29T07:41:18;102117.31;;;21.26;57.45
46045;BME280;31781;54.094;13.428;2022-07-29T07:46:21;102119.19;;;21.65;57.03
46045;BME280;31781;54.094;13.428;2022-07-29T07:51:24;102115.78;;;22.08;56.67
46045;BME280;31781;54.094;13.428;2022-07-29T07:56:32;102112.28;;;22.51;55.58
46045;BME280;31781;54.094;13.428;2022-07-29T08:01:36;102107.97;;;22.99;54.93
46045;BME280;31781;54.094;13.428;2022-07-29T08:06:50;102116.53;;;23.41;52.79
46045;BME280;31781;54.094;13.428;2022-07-29T08:11:58;102107.22;;;23.79;53.30
46045;BME280;31781;54.094;13.428;2022-07-29T08:17:01;102112.56;;;24.17;51.13
46045;BME280;31781;54.094;13.428;2022-07-29T08:22:04;102102.25;;;24.54;51.61
46045;BME280;31781;54.094;13.428;2022-07-29T08:27:12;102106.91;;;24.91;50.96
46045;BME280;31781;54.094;13.428;2022-07-29T08:32:36;102106.47;;;25.24;50.27
46045;BME280;31781;54.094;13.428;2022-07-29T08:37:56;102118.31;;;25.56;48.77
46045;BME280;31781;54.094;13.428;2022-07-29T08:43:15;102102.19;;;25.94;49.06
46045;BME280;31781;54.094;13.428;2022-07-29T08:48:19;102105.25;;;26.12;48.29
46045;BME280;31781;54.094;13.428;2022-07-29T08:53:25;102101.31;;;26.44;47.25
46045;BME280;31781;54.094;13.428;2022-07-29T08:58:35;102102.03;;;26.80;47.22
46045;BME280;31781;54.094;13.428;2022-07-29T09:03:41;102094.97;;;27.07;47.11
46045;BME280;31781;54.094;13.428;2022-07-29T09:08:46;102095.75;;;27.18;46.29
46045;BME280;31781;54.094;13.428;2022-07-29T09:13:54;102108.22;;;27.36;44.60
46045;BME280;31781;54.094;13.428;2022-07-29T09:18:57;102107.09;;;27.42;45.81
46045;BME280;31781;54.094;13.428;2022-07-29T09:24:05;102100.34;;;27.53;45.21
46045;BME280;31781;54.094;13.428;2022-07-29T09:29:16;102103.00;;;27.68;45.40
46045;BME280;31781;54.094;13.428;2022-07-29T09:34:24;102101.16;;;27.92;45.54
46045;BME280;31781;54.094;13.428;2022-07-29T09:39:28;102104.81;;;28.22;44.39
46045;BME280;31781;54.094;13.428;2022-07-29T09:44:49;102098.47;;;28.40;43.16
46045;BME280;31781;54.094;13.428;2022-07-29T09:49:54;102099.31;;;28.40;44.79
46045;BME280;31781;54.094;13.428;2022-07-29T09:55:04;102092.94;;;28.35;43.38
46045;BME280;31781;54.094;13.428;2022-07-29T10:00:14;102092.75;;;28.26;44.36
46045;BME280;31781;54.094;13.428;2022-07-29T10:05:20;102090.00;;;28.21;44.38
46045;BME280;31781;54.094;13.428;2022-07-29T10:10:25;102085.97;;;28.32;43.78
46045;BME280;31781;54.094;13.428;2022-07-29T10:15:35;102089.09;;;28.54;42.89
46045;BME280;31781;54.094;13.428;2022-07-29T10:20:54;102085.31;;;28.93;44.18
46045;BME280;31781;54.094;13.428;2022-07-29T10:25:58;102073.41;;;29.20;42.67
46045;BME280;31781;54.094;13.428;2022-07-29T10:31:05;102069.75;;;29.43;41.44
46045;BME280;31781;54.094;13.428;2022-07-29T10:36:24;102076.41;;;29.66;41.64
46045;BME280;31781;54.094;13.428;2022-07-29T10:47:04;102066.03;;;29.85;42.13
46045;BME280;31781;54.094;13.428;2022-07-29T10:52:12;102069.41;;;29.82;40.36
46045;BME280;31781;54.094;13.428;2022-07-29T10:57:21;102074.44;;;29.85;40.67
46045;BME280;31781;54.094;13.428;2022-07-29T11:02:45;102066.97;;;29.94;41.45
46045;BME280;31781;54.094;13.428;2022-07-29T11:08:29;102062.00;;;30.05;36.11
46045;BME280;31781;54.094;13.428;2022-07-29T11:13:46;102061.06;;;29.95;39.22
46045;BME280;31781;54.094;13.428;2022-07-29T11:19:20;102057.66;;;29.80;39.34
46045;BME280;31781;54.094;13.428;2022-07-29T11:24:36;102057.22;;;29.73;39.47
46045;BME280;31781;54.094;13.428;2022-07-29T11:29:53;102057.00;;;29.69;38.75
46045;BME280;31781;54.094;13.428;2022-07-29T11:35:22;102050.69;;;29.77;39.11
46045;BME280;31781;54.094;13.428;2022-07-29T11:40:40;102056.69;;;29.71;40.10
46045;BME280;31781;54.094;13.428;2022-07-29T11:45:46;102053.47;;;29.96;38.80
46045;BME280;31781;54.094;13.428;2022-07-29T11:50:56;102047.25;;;30.13;39.13
46045;BME280;31781;54.094;13.428;2022-07-29T11:56:00;102043.63;;;30.12;39.23
46045;BME280;31781;54.094;13.428;2022-07-29T12:01:04;102043.53;;;30.04;36.76
46045;BME280;31781;54.094;13.428;2022-07-29T12:06:16;102038.22;;;29.83;37.05
46045;BME280;31781;54.094;13.428;2022-07-29T12:11:39;102041.00;;;29.70;38.03
46045;BME280;31781;54.094;13.428;2022-07-29T12:16:45;102032.69;;;29.46;36.68
46045;BME280;31781;54.094;13.428;2022-07-29T12:27:07;102032.88;;;29.12;38.16
46045;BME280;31781;54.094;13.428;2022-07-29T12:32:09;102040.16;;;28.94;38.11
46045;BME280;31781;54.094;13.428;2022-07-29T12:37:19;102043.31;;;28.88;38.37
46045;BME280;31781;54.094;13.428;2022-07-29T12:43:05;102029.59;;;28.86;37.96
46045;BME280;31781;54.094;13.428;2022-07-29T12:48:09;102040.28;;;28.84;39.54
46045;BME280;31781;54.094;13.428;2022-07-29T12:53:13;102028.31;;;28.79;38.69
46045;BME280;31781;54.094;13.428;2022-07-29T13:09:15;102036.72;;;28.55;40.29
46045;BME280;31781;54.094;13.428;2022-07-29T13:14:30;102036.47;;;28.28;40.22
46045;BME280;31781;54.094;13.428;2022-07-29T13:19:38;102033.56;;;28.09;41.99
46045;BME280;31781;54.094;13.428;2022-07-29T13:24:54;102028.34;;;27.97;41.40
46045;BME280;31781;54.094;13.428;2022-07-29T13:29:57;102020.37;;;27.86;42.00
46045;BME280;31781;54.094;13.428;2022-07-29T13:35:02;102013.47;;;27.73;41.71
46045;BME280;31781;54.094;13.428;2022-07-29T13:40:20;102009.59;;;27.69;41.98
46045;BME280;31781;54.094;13.428;2022-07-29T13:45:23;102008.31;;;27.56;42.74
46045;BME280;31781;54.094;13.428;2022-07-29T13:50:29;102012.25;;;27.55;43.94
46045;BME280;31781;54.094;13.428;2022-07-29T13:55:37;102000.22;;;27.55;44.52
46045;BME280;31781;54.094;13.428;2022-07-29T14:00:40;102007.41;;;27.61;43.87
46045;BME280;31781;54.094;13.428;2022-07-29T14:05:43;101989.78;;;27.66;44.67
46045;BME280;31781;54.094;13.428;2022-07-29T14:10:51;101993.31;;;27.76;43.24
46045;BME280;31781;54.094;13.428;2022-07-29T14:15:54;101994.88;;;27.87;42.49
46045;BME280;31781;54.094;13.428;2022-07-29T14:20:56;101993.97;;;27.97;42.56
46045;BME280;31781;54.094;13.428;2022-07-29T14:26:04;101993.53;;;28.14;42.72
46045;BME280;31781;54.094;13.428;2022-07-29T14:31:13;102001.34;;;28.40;42.68
46045;BME280;31781;54.094;13.428;2022-07-29T14:36:16;101998.75;;;28.68;41.93
46045;BME280;31781;54.094;13.428;2022-07-29T14:41:24;101992.91;;;28.88;40.18
46045;BME280;31781;54.094;13.428;2022-07-29T14:46:27;101995.69;;;28.88;40.79
46045;BME280;31781;54.094;13.428;2022-07-29T14:51:30;101989.03;;;28.84;40.23
46045;BME280;31781;54.094;13.428;2022-07-29T14:56:38;101991.38;;;28.77;40.63
46045;BME280;31781;54.094;13.428;2022-07-29T15:01:47;101990.66;;;28.66;40.47
46045;BME280;31781;54.094;13.428;2022-07-29T15:06:50;101983.28;;;28.51;40.95
46045;BME280;31781;54.094;13.428;2022-07-29T15:11:58;101986.25;;;28.36;40.20
46045;BME280;31781;54.094;13.428;2022-07-29T15:17:01;101978.84;;;28.27;41.45
46045;BME280;31781;54.094;13.428;2022-07-29T15:22:05;101988.00;;;28.32;41.05
46045;BME280;31781;54.094;13.428;2022-07-29T15:27:13;101981.50;;;28.37;41.21
46045;BME280;31781;54.094;13.428;2022-07-29T15:32:16;101982.63;;;28.36;41.34
46045;BME280;31781;54.094;13.428;2022-07-29T15:37:19;101970.66;;;28.30;41.40
46045;BME280;31781;54.094;13.428;2022-07-29T15:47:45;101960.84;;;28.33;41.38
46045;BME280;31781;54.094;13.428;2022-07-29T15:52:48;101960.13;;;28.22;41.05
46045;BME280;31781;54.094;13.428;2022-07-29T15:57:51;101962.09;;;28.22;40.78
46045;BME280;31781;54.094;13.428;2022-07-29T16:03:05;101955.59;;;28.26;40.99
46045;BME280;31781;54.094;13.428;2022-07-29T16:08:24;101957.44;;;28.36;41.59
46045;BME280;31781;54.094;13.428;2022-07-29T16:18:45;101947.66;;;28.33;41.60
46045;BME280;31781;54.094;13.428;2022-07-29T16:23:48;101951.78;;;28.17;41.55
46045;BME280;31781;54.094;13.428;2022-07-29T16:28:51;101947.63;;;28.15;41.67
46045;BME280;31781;54.094;13.428;2022-07-29T16:34:00;101950.34;;;28.20;40.73
46045;BME280;31781;54.094;13.428;2022-07-29T16:39:02;101942.25;;;28.18;41.26
46045;BME280;31781;54.094;13.428;2022-07-29T16:44:05;101945.69;;;28.10;41.39
46045;BME280;31781;54.094;13.428;2022-07-29T16:49:13;101941.59;;;27.97;41.39
46045;BME280;31781;54.094;13.428;2022-07-29T16:54:20;101935.59;;;27.85;41.03
46045;BME280;31781;54.094;13.428;2022-07-29T16:59:22;101938.31;;;27.67;41.51
46045;BME280;31781;54.094;13.428;2022-07-29T17:04:31;101932.25;;;27.60;40.95
46045;BME280;31781;54.094;13.428;2022-07-29T17:09:34;101934.91;;;27.41;41.62
46045;BME280;31781;54.094;13.428;2022-07-29T17:14:36;101942.66;;;27.15;41.75
46045;BME280;31781;54.094;13.428;2022-07-29T17:19:44;101937.78;;;26.92;42.64
46045;BME280;31781;54.094;13.428;2022-07-29T17:24:47;101932.59;;;26.70;42.67
46045;BME280;31781;54.094;13.428;2022-07-29T17:29:50;101930.19;;;26.48;43.01
46045;BME280;31781;54.094;13.428;2022-07-29T17:34:58;101931.69;;;26.21;43.57
46045;BME280;31781;54.094;13.428;2022-07-29T17:40:17;101923.09;;;26.02;43.31
46045;BME280;31781;54.094;13.428;2022-07-29T17:45:19;101919.81;;;25.70;44.44
46045;BME280;31781;54.094;13.428;2022-07-29T17:50:22;101922.63;;;25.54;45.29
46045;BME280;31781;54.094;13.428;2022-07-29T17:55:30;101912.91;;;25.57;45.35
46045;BME280;31781;54.094;13.428;2022-07-29T18:00:34;101908.44;;;25.31;45.45
46045;BME280;31781;54.094;13.428;2022-07-29T18:05:36;101916.19;;;24.98;46.56
46045;BME280;31781;54.094;13.428;2022-07-29T18:10:45;101918.63;;;24.69;47.48
46045;BME280;31781;54.094;13.428;2022-07-29T18:15:48;101921.34;;;24.44;47.06
46045;BME280;31781;54.094;13.428;2022-07-29T18:20:51;101921.25;;;24.19;48.36
46045;BME280;31781;54.094;13.428;2022-07-29T18:25:59;101923.56;;;23.95;48.93
46045;BME280;31781;54.094;13.428;2022-07-29T18:31:02;101920.69;;;23.75;48.48
46045;BME280;31781;54.094;13.428;2022-07-29T18:36:05;101923.91;;;23.57;49.77
46045;BME280;31781;54.094;13.428;2022-07-29T18:41:17;101928.47;;;23.41;50.23
46045;BME280;31781;54.094;13.428;2022-07-29T18:46:20;101929.19;;;23.26;49.06
46045;BME280;31781;54.094;13.428;2022-07-29T18:51:38;101936.00;;;23.14;48.99
46045;BME280;31781;54.094;13.428;2022-07-29T18:56:42;101946.62;;;22.90;50.25
46045;BME280;31781;54.094;13.428;2022-07-29T19:01:45;101944.22;;;22.72;51.95
46045;BME280;31781;54.094;13.428;2022-07-29T19:06:53;101942.63;;;22.59;51.95
46045;BME280;31781;54.094;13.428;2022-07-29T19:11:56;101948.59;;;22.46;51.22
46045;BME280;31781;54.094;13.428;2022-07-29T19:17:04;101939.56;;;22.34;52.83
46045;BME280;31781;54.094;13.428;2022-07-29T19:22:12;101948.59;;;22.24;52.82
46045;BME280;31781;54.094;13.428;2022-07-29T19:27:15;101951.50;;;22.13;51.65
46045;BME280;31781;54.094;13.428;2022-07-29T19:32:18;101962.94;;;22.00;53.52
46045;BME280;31781;54.094;13.428;2022-07-29T19:37:31;101950.50;;;21.85;54.08
46045;BME280;31781;54.094;13.428;2022-07-29T19:42:33;101963.62;;;21.73;52.98
46045;BME280;31781;54.094;13.428;2022-07-29T19:47:36;101958.44;;;21.60;54.92
46045;BME280;31781;54.094;13.428;2022-07-29T19:52:45;101964.91;;;21.49;55.11
46045;BME280;31781;54.094;13.428;2022-07-29T19:57:48;101956.44;;;21.39;54.00
46045;BME280;31781;54.094;13.428;2022-07-29T20:02:51;101946.28;;;21.28;55.95
46045;BME280;31781;54.094;13.428;2022-07-29T20:08:00;101950.53;;;21.19;56.21
46045;BME280;31781;54.094;13.428;2022-07-29T20:13:02;101955.87;;;21.09;54.87
46045;BME280;31781;54.094;13.428;2022-07-29T20:18:05;101950.97;;;20.99;57.08
46045;BME280;31781;54.094;13.428;2022-07-29T20:23:13;101947.53;;;20.92;56.84
46045;BME280;31781;54.094;13.428;2022-07-29T20:28:16;101953.72;;;20.82;55.62
46045;BME280;31781;54.094;13.428;2022-07-29T20:33:19;101946.31;;;20.71;57.74
46045;BME280;31781;54.094;13.428;2022-07-29T20:38:27;101943.09;;;20.63;57.92
46045;BME280;31781;54.094;13.428;2022-07-29T20:43:30;101945.16;;;20.56;56.38
46045;BME280;31781;54.094;13.428;2022-07-29T20:48:39;101952.66;;;20.44;57.80
46045;BME280;31781;54.094;13.428;2022-07-29T20:53:47;101954.47;;;20.38;57.92
46045;BME280;31781;54.094;13.428;2022-07-29T20:58:50;101951.03;;;20.31;55.96
46045;BME280;31781;54.094;13.428;2022-07-29T21:03:53;101957.50;;;20.25;57.60
46045;BME280;31781;54.094;13.428;2022-07-29T21:09:01;101954.84;;;20.18;57.43
46045;BME280;31781;54.094;13.428;2022-07-29T21:14:04;101947.78;;;20.11;55.81
46045;BME280;31781;54.094;13.428;2022-07-29T21:19:07;101949.47;;;20.00;57.32
46045;BME280;31781;54.094;13.428;2022-07-29T21:24:15;101949.84;;;19.92;57.98
46045;BME280;31781;54.094;13.428;2022-07-29T21:29:18;101942.75;;;19.84;56.34
46045;BME280;31781;54.094;13.428;2022-07-29T21:34:36;101937.25;;;19.84;55.41
46045;BME280;31781;54.094;13.428;2022-07-29T21:39:41;101941.59;;;19.69;56.26
46045;BME280;31781;54.094;13.428;2022-07-29T21:44:43;101936.16;;;19.62;58.13
46045;BME280;31781;54.094;13.428;2022-07-29T21:49:52;101932.47;;;19.57;58.14
46045;BME280;31781;54.094;13.428;2022-07-29T21:54:54;101933.44;;;19.51;56.94
46045;BME280;31781;54.094;13.428;2022-07-29T21:59:57;101930.53;;;19.46;58.43
46045;BME280;31781;54.094;13.428;2022-07-29T22:05:17;101935.56;;;19.49;55.70
46045;BME280;31781;54.094;13.428;2022-07-29T22:10:20;101940.81;;;19.38;56.95
46045;BME280;31781;54.094;13.428;2022-07-29T22:15:24;101943.22;;;19.35;58.37
46045;BME280;31781;54.094;13.428;2022-07-29T22:25:45;101936.62;;;19.36;56.52
46045;BME280;31781;54.094;13.428;2022-07-29T22:30:48;101935.28;;;19.27;58.00
46045;BME280;31781;54.094;13.428;2022-07-29T22:35:50;101929.63;;;19.22;59.81
46045;BME280;31781;54.094;13.428;2022-07-29T22:40:59;101930.34;;;19.17;60.10
46045;BME280;31781;54.094;13.428;2022-07-29T22:46:03;101928.87;;;19.15;58.45
46045;BME280;31781;54.094;13.428;2022-07-29T22:51:22;101918.47;;;19.17;57.81
46045;BME280;31781;54.094;13.428;2022-07-29T22:56:25;101918.78;;;18.97;63.07
46045;BME280;31781;54.094;13.428;2022-07-29T23:06:46;101915.59;;;19.23;59.20
46045;BME280;31781;54.094;13.428;2022-07-29T23:11:49;101914.13;;;19.09;60.99
46045;BME280;31781;54.094;13.428;2022-07-29T23:16:51;101920.00;;;19.01;62.98
46045;BME280;31781;54.094;13.428;2022-07-29T23:22:00;101913.75;;;18.94;63.72
46045;BME280;31781;54.094;13.428;2022-07-29T23:27:03;101907.03;;;18.90;61.53
46045;BME280;31781;54.094;13.428;2022-07-29T23:32:06;101902.44;;;18.84;63.90
46045;BME280;31781;54.094;13.428;2022-07-29T23:37:14;101908.66;;;18.79;63.35
46045;BME280;31781;54.094;13.428;2022-07-29T23:42:16;101906.59;;;18.75;61.73
46045;BME280;31781;54.094;13.428;2022-07-29T23:52:38;101902.28;;;18.67;61.10
46045;BME280;31781;54.094;13.428;2022-07-29T23:57:41;101904.13;;;18.55;62.56
